Time;durP1;ratioP1;P1;durP2;ratioP2;P2;SDS_P1;SDS_P2;PMS_P1;PMS_P2;Temp;Humidity;BMP_temperature;BMP_pressure;BME280_temperature;BME280_humidity;BME280_pressure;Samples;Min_cycle;Max_cycle;Signal;HPM_P1;HPM_P2
2021/11/14 00:00:16;;;;;;;;;;;11.60;99.90;;;;;;5007921;28;19913;-72
2021/11/14 00:02:41;;;;;;;;;;;11.50;99.90;;;;;;5014339;28;19924;-69
2021/11/14 00:05:07;;;;;;;;;;;11.30;99.90;;;;;;5013365;28;19936;-69
2021/11/14 00:07:34;;;;;;;;;;;11.20;99.90;;;;;;5028293;28;19920;-70
2021/11/14 00:09:59;;;;;;;;;;;11.20;99.90;;;;;;5016269;28;20555;-70
2021/11/14 00:12:25;;;;;;;;;;;11.20;99.90;;;;;;5023023;28;20004;-70
2021/11/14 00:14:51;;;;;;;;;;;11.20;99.90;;;;;;5031679;28;20526;-68
2021/11/14 00:17:17;;;;;;;;;;;11.20;99.90;;;;;;5034539;28;20309;-70
2021/11/14 00:19:42;;;;;;;;;;;11.20;99.90;;;;;;5019192;28;20445;-69
2021/11/14 00:22:08;;;;;;;;;;;11.20;99.90;;;;;;5024423;28;19921;-69
2021/11/14 00:24:34;;;;;;;;;;;11.20;99.90;;;;;;5026155;28;20672;-70
2021/11/14 00:26:59;;;;;;;;;;;11.20;99.90;;;;;;5039141;28;19913;-69
2021/11/14 00:29:25;;;;;;;;;;;11.20;99.90;;;;;;5021511;28;19921;-70
2021/11/14 00:31:52;;;;;;;;;;;11.20;99.90;;;;;;5036592;28;19936;-70
2021/11/14 00:34:17;;;;;;;;;;;11.30;99.90;;;;;;5028040;28;19971;-69
2021/11/14 00:36:43;;;;;;;;;;;11.30;99.90;;;;;;5006913;28;19955;-70
2021/11/14 00:39:10;;;;;;;;;;;11.20;99.90;;;;;;5030273;28;19921;-69
2021/11/14 00:41:36;;;;;;;;;;;11.20;99.90;;;;;;5034007;28;20705;-69
2021/11/14 00:44:03;;;;;;;;;;;11.30;99.90;;;;;;5029658;28;20253;-70
2021/11/14 00:46:28;;;;;;;;;;;11.30;99.90;;;;;;5026434;28;19921;-70
2021/11/14 00:48:54;;;;;;;;;;;11.30;99.90;;;;;;5031055;28;19917;-67
2021/11/14 00:51:27;;;;;;;;;;;11.50;99.90;;;;;;5036491;28;19917;-69
2021/11/14 00:53:53;;;;;;;;;;;11.50;99.90;;;;;;5035095;28;19913;-70
2021/11/14 00:56:19;;;;;;;;;;;11.60;99.90;;;;;;5029568;28;19935;-69
2021/11/14 00:58:44;;;;;;;;;;;11.60;99.90;;;;;;5027178;28;19921;-69
2021/11/14 01:01:10;;;;;;;;;;;11.80;99.90;;;;;;5021075;28;19917;-69
2021/11/14 01:03:36;;;;;;;;;;;11.80;99.90;;;;;;5010757;28;19923;-66
2021/11/14 01:06:02;;;;;;;;;;;11.90;99.90;;;;;;5030496;28;19936;-69
2021/11/14 01:08:28;;;;;;;;;;;12.00;99.90;;;;;;5029177;28;19913;-69
2021/11/14 01:10:55;;;;;;;;;;;11.90;99.90;;;;;;5035254;28;19936;-70
2021/11/14 01:13:21;;;;;;;;;;;11.80;99.90;;;;;;5033877;28;19983;-72
2021/11/14 01:15:47;;;;;;;;;;;11.80;99.90;;;;;;5039231;28;19920;-70
2021/11/14 01:18:14;;;;;;;;;;;11.90;99.90;;;;;;5044126;28;19925;-69
2021/11/14 01:20:41;;;;;;;;;;;11.80;99.90;;;;;;5028365;28;19921;-68
2021/11/14 01:23:09;;;;;;;;;;;11.80;99.90;;;;;;5038137;28;19913;-65
2021/11/14 01:25:35;;;;;;;;;;;11.90;99.90;;;;;;5034973;28;19913;-70
2021/11/14 01:28:02;;;;;;;;;;;11.80;99.90;;;;;;5013849;28;20334;-69
2021/11/14 01:30:35;;;;;;;;;;;11.70;99.90;;;;;;5040050;28;19941;-67
2021/11/14 01:33:01;;;;;;;;;;;11.60;99.90;;;;;;5045600;28;19944;-67
2021/11/14 01:35:28;;;;;;;;;;;11.40;99.90;;;;;;5046476;28;19909;-69
2021/11/14 01:37:55;;;;;;;;;;;11.30;99.90;;;;;;5041892;28;19913;-67
2021/11/14 01:40:23;;;;;;;;;;;11.40;99.90;;;;;;5026686;28;19944;-70
2021/11/14 01:42:49;;;;;;;;;;;11.40;99.90;;;;;;5020963;28;19921;-70
2021/11/14 01:45:15;;;;;;;;;;;11.50;99.90;;;;;;5032874;28;19920;-69
2021/11/14 01:47:41;;;;;;;;;;;11.60;99.90;;;;;;5029680;28;20377;-66
2021/11/14 01:50:09;;;;;;;;;;;11.70;99.90;;;;;;5031794;28;19932;-69
2021/11/14 01:52:35;;;;;;;;;;;11.70;99.90;;;;;;5014680;28;19913;-65
2021/11/14 01:55:01;;;;;;;;;;;11.70;99.90;;;;;;5023170;28;19963;-69
2021/11/14 01:57:27;;;;;;;;;;;11.40;99.90;;;;;;5009409;28;19936;-70
2021/11/14 01:59:52;;;;;;;;;;;11.30;99.90;;;;;;5025470;28;20270;-69
2021/11/14 02:02:18;;;;;;;;;;;11.30;99.90;;;;;;5026907;28;19926;-69
2021/11/14 02:04:44;;;;;;;;;;;11.40;99.90;;;;;;5040394;28;19924;-66
2021/11/14 02:07:11;;;;;;;;;;;11.40;99.90;;;;;;5038760;28;19917;-69
2021/11/14 02:09:37;;;;;;;;;;;11.40;99.90;;;;;;5026339;28;20075;-70
2021/11/14 02:12:04;;;;;;;;;;;11.50;99.90;;;;;;5035447;28;20036;-69
2021/11/14 02:14:29;;;;;;;;;;;11.40;99.90;;;;;;5030789;28;19920;-68
2021/11/14 02:16:55;;;;;;;;;;;11.20;99.90;;;;;;5038013;28;19913;-71
2021/11/14 02:19:21;;;;;;;;;;;11.20;99.90;;;;;;5038043;28;20124;-67
2021/11/14 02:21:48;;;;;;;;;;;11.10;99.90;;;;;;5023848;28;19920;-65
2021/11/14 02:24:14;;;;;;;;;;;11.10;99.90;;;;;;5047502;28;19920;-66
2021/11/14 02:26:40;;;;;;;;;;;11.10;99.90;;;;;;5057551;28;19907;-67
2021/11/14 02:29:05;;;;;;;;;;;11.20;99.90;;;;;;5049342;28;19909;-69
2021/11/14 02:31:31;;;;;;;;;;;11.20;99.90;;;;;;5015094;28;19951;-69
2021/11/14 02:33:57;;;;;;;;;;;11.30;99.90;;;;;;5020547;28;19944;-69
2021/11/14 02:36:22;;;;;;;;;;;11.10;99.90;;;;;;5018469;28;20366;-69
2021/11/14 02:38:48;;;;;;;;;;;11.00;99.90;;;;;;5021472;28;20207;-69
2021/11/14 02:41:15;;;;;;;;;;;10.90;99.90;;;;;;5030986;28;19925;-65
2021/11/14 02:43:43;;;;;;;;;;;10.90;99.90;;;;;;5018200;28;20169;-67
2021/11/14 02:46:10;;;;;;;;;;;10.90;99.90;;;;;;5022156;28;20395;-70
2021/11/14 02:48:36;;;;;;;;;;;10.90;99.90;;;;;;5030203;28;20107;-70
2021/11/14 02:51:03;;;;;;;;;;;10.90;99.90;;;;;;5024118;28;20023;-69
2021/11/14 02:53:29;;;;;;;;;;;11.00;99.90;;;;;;5024652;28;19917;-70
2021/11/14 02:55:55;;;;;;;;;;;11.10;99.90;;;;;;5029749;28;20192;-66
2021/11/14 02:58:21;;;;;;;;;;;11.10;99.90;;;;;;5025009;28;19920;-69
2021/11/14 03:00:49;;;;;;;;;;;11.30;99.90;;;;;;5018740;28;19944;-67
2021/11/14 03:03:15;;;;;;;;;;;11.30;99.90;;;;;;5036483;28;19940;-67
2021/11/14 03:05:40;;;;;;;;;;;11.20;99.90;;;;;;4998265;28;19913;-68
2021/11/14 03:08:06;;;;;;;;;;;11.20;99.90;;;;;;5024042;28;20452;-70
2021/11/14 03:10:32;;;;;;;;;;;11.20;99.90;;;;;;5017410;28;19914;-69
2021/11/14 03:12:59;;;;;;;;;;;11.20;99.90;;;;;;5015174;28;20315;-70
2021/11/14 03:15:25;;;;;;;;;;;11.10;99.90;;;;;;5019868;28;19917;-69
2021/11/14 03:17:51;;;;;;;;;;;11.20;99.90;;;;;;5020449;28;19920;-69
2021/11/14 03:20:17;;;;;;;;;;;11.40;99.90;;;;;;5029498;28;19917;-68
2021/11/14 03:22:44;;;;;;;;;;;11.40;99.90;;;;;;5028253;28;19905;-66
2021/11/14 03:25:10;;;;;;;;;;;11.40;99.90;;;;;;5016403;28;20026;-65
2021/11/14 03:27:35;;;;;;;;;;;11.30;99.90;;;;;;5032409;28;19920;-68
2021/11/14 03:30:03;;;;;;;;;;;11.30;99.90;;;;;;5045444;28;19980;-65
2021/11/14 03:32:28;;;;;;;;;;;11.30;99.90;;;;;;5001475;28;19922;-70
2021/11/14 03:34:54;;;;;;;;;;;11.40;99.90;;;;;;5013971;28;19913;-69
2021/11/14 03:37:20;;;;;;;;;;;11.20;99.90;;;;;;5016699;28;19962;-70
2021/11/14 03:39:47;;;;;;;;;;;11.10;99.90;;;;;;5024633;28;20347;-70
2021/11/14 03:42:13;;;;;;;;;;;11.10;99.90;;;;;;5025674;28;19920;-69
2021/11/14 03:44:40;;;;;;;;;;;11.00;99.90;;;;;;5025093;28;19914;-69
2021/11/14 03:47:06;;;;;;;;;;;11.00;99.90;;;;;;5040014;28;20356;-67
2021/11/14 03:49:31;;;;;;;;;;;10.90;99.90;;;;;;5034704;28;19913;-70
2021/11/14 03:51:57;;;;;;;;;;;10.90;99.90;;;;;;5035376;28;20432;-71
2021/11/14 03:54:23;;;;;;;;;;;10.90;99.90;;;;;;5024896;28;19952;-69
2021/11/14 03:56:48;;;;;;;;;;;11.00;99.90;;;;;;5024902;28;20209;-70
2021/11/14 03:59:14;;;;;;;;;;;11.00;99.90;;;;;;5024795;28;19932;-69
2021/11/14 04:01:39;;;;;;;;;;;11.00;99.90;;;;;;5030880;28;20127;-68
2021/11/14 04:04:05;;;;;;;;;;;10.90;99.90;;;;;;5042007;28;19944;-70
2021/11/14 04:06:31;;;;;;;;;;;10.80;99.90;;;;;;5049511;28;20015;-69
2021/11/14 04:08:57;;;;;;;;;;;10.90;99.90;;;;;;5044416;28;20075;-70
2021/11/14 04:11:23;;;;;;;;;;;10.90;99.90;;;;;;5032096;28;19913;-66
2021/11/14 04:13:49;;;;;;;;;;;10.80;99.90;;;;;;5031716;28;20016;-69
2021/11/14 04:16:15;;;;;;;;;;;10.70;99.90;;;;;;5027100;28;19913;-69
2021/11/14 04:18:41;;;;;;;;;;;10.70;99.90;;;;;;5033189;28;19916;-69
2021/11/14 04:21:07;;;;;;;;;;;10.70;99.90;;;;;;5034211;28;20241;-70
2021/11/14 04:23:32;;;;;;;;;;;10.70;99.90;;;;;;5030575;28;19925;-70
2021/11/14 04:25:58;;;;;;;;;;;10.70;99.90;;;;;;5026244;28;20337;-68
2021/11/14 04:28:24;;;;;;;;;;;10.70;99.90;;;;;;5023249;28;20312;-68
2021/11/14 04:30:50;;;;;;;;;;;10.80;99.90;;;;;;5016219;28;20007;-68
2021/11/14 04:33:16;;;;;;;;;;;10.80;99.90;;;;;;5025191;28;19917;-69
2021/11/14 04:35:42;;;;;;;;;;;10.80;99.90;;;;;;5042761;28;20357;-70
2021/11/14 04:38:07;;;;;;;;;;;11.00;99.90;;;;;;5033086;28;20016;-70
2021/11/14 04:40:36;;;;;;;;;;;10.90;99.90;;;;;;5024371;28;20344;-72
2021/11/14 04:43:03;;;;;;;;;;;10.80;99.90;;;;;;5025542;28;19913;-69
2021/11/14 04:45:28;;;;;;;;;;;10.80;99.90;;;;;;5032846;28;20232;-67
2021/11/14 04:47:54;;;;;;;;;;;10.70;99.90;;;;;;5017521;28;19960;-69
2021/11/14 04:50:21;;;;;;;;;;;10.80;99.90;;;;;;5034693;28;20078;-70
2021/11/14 04:52:46;;;;;;;;;;;10.70;99.90;;;;;;5034233;28;20047;-68
2021/11/14 04:55:12;;;;;;;;;;;10.70;99.90;;;;;;5028158;28;19915;-70
2021/11/14 04:57:38;;;;;;;;;;;10.60;99.90;;;;;;5029246;28;19954;-69
2021/11/14 05:00:06;;;;;;;;;;;10.60;99.90;;;;;;5027186;28;20378;-68
2021/11/14 05:02:32;;;;;;;;;;;10.70;99.90;;;;;;5028968;28;19985;-68
2021/11/14 05:04:57;;;;;;;;;;;10.60;99.90;;;;;;5028264;28;19913;-69
2021/11/14 05:07:23;;;;;;;;;;;10.70;99.90;;;;;;5008865;28;20413;-68
2021/11/14 05:09:48;;;;;;;;;;;10.60;99.90;;;;;;5038301;28;19909;-69
2021/11/14 05:12:14;;;;;;;;;;;10.60;99.90;;;;;;5027182;28;19909;-69
2021/11/14 05:14:39;;;;;;;;;;;10.60;99.90;;;;;;5026157;28;19924;-69
2021/11/14 05:17:05;;;;;;;;;;;10.60;99.90;;;;;;5028886;28;19909;-70
2021/11/14 05:19:31;;;;;;;;;;;10.60;99.90;;;;;;5030287;28;19913;-69
2021/11/14 05:21:56;;;;;;;;;;;10.60;99.90;;;;;;5044875;28;20222;-68
2021/11/14 05:24:22;;;;;;;;;;;10.50;99.90;;;;;;5033384;28;19956;-68
2021/11/14 05:26:47;;;;;;;;;;;10.60;99.90;;;;;;5033346;28;19913;-68
2021/11/14 05:29:13;;;;;;;;;;;10.60;99.90;;;;;;5033889;28;19988;-69
2021/11/14 05:31:38;;;;;;;;;;;10.60;99.90;;;;;;5038164;28;19917;-69
2021/11/14 05:34:04;;;;;;;;;;;10.60;99.90;;;;;;5032819;28;19940;-68
2021/11/14 05:36:29;;;;;;;;;;;10.70;99.90;;;;;;5058465;28;20140;-69
2021/11/14 05:38:55;;;;;;;;;;;10.60;99.90;;;;;;5042926;28;19919;-69
2021/11/14 05:41:20;;;;;;;;;;;10.70;99.90;;;;;;5030611;28;19920;-67
2021/11/14 05:43:46;;;;;;;;;;;10.70;99.90;;;;;;5040969;28;19917;-69
2021/11/14 05:46:12;;;;;;;;;;;10.80;99.90;;;;;;5047105;28;19912;-69
2021/11/14 05:48:38;;;;;;;;;;;10.70;99.90;;;;;;5059424;28;19913;-69
2021/11/14 05:51:04;;;;;;;;;;;10.60;99.90;;;;;;5060637;28;19917;-67
2021/11/14 05:53:29;;;;;;;;;;;10.60;99.90;;;;;;5068437;28;19917;-67
2021/11/14 05:55:55;;;;;;;;;;;10.60;99.90;;;;;;5045782;28;19972;-67
2021/11/14 05:58:33;;;;;;;;;;;10.60;99.90;;;;;;5022909;28;20302;-70
2021/11/14 06:01:09;;;;;;;;;;;10.60;99.90;;;;;;5036368;28;19920;-69
2021/11/14 06:06:26;;;;;;;;;;;10.70;99.90;;;;;;5009026;28;20365;-69
2021/11/14 06:08:52;;;;;;;;;;;10.70;99.90;;;;;;5028910;28;19913;-67
2021/11/14 06:11:18;;;;;;;;;;;10.70;99.90;;;;;;5038087;28;20362;-70
2021/11/14 06:13:43;;;;;;;;;;;10.80;99.90;;;;;;5036740;28;19913;-68
2021/11/14 06:16:09;;;;;;;;;;;10.60;99.90;;;;;;5052082;28;19924;-67
2021/11/14 06:18:35;;;;;;;;;;;10.50;99.90;;;;;;5057764;28;19917;-68
2021/11/14 06:21:00;;;;;;;;;;;10.60;99.90;;;;;;5030852;28;19968;-68
2021/11/14 06:23:26;;;;;;;;;;;10.50;99.90;;;;;;5027261;28;20408;-69
2021/11/14 06:25:52;;;;;;;;;;;10.60;99.90;;;;;;5036438;28;20210;-69
2021/11/14 06:28:19;;;;;;;;;;;10.50;99.90;;;;;;5028555;28;19931;-70
2021/11/14 06:30:45;;;;;;;;;;;10.50;99.90;;;;;;5035543;28;19920;-70
2021/11/14 06:33:11;;;;;;;;;;;10.50;99.90;;;;;;5027552;28;19909;-69
2021/11/14 06:35:37;;;;;;;;;;;10.60;99.90;;;;;;5032462;28;19918;-69
2021/11/14 06:38:03;;;;;;;;;;;10.60;99.90;;;;;;5044770;28;20372;-69
2021/11/14 06:40:28;;;;;;;;;;;10.60;99.90;;;;;;5048803;28;19952;-69
2021/11/14 06:42:56;;;;;;;;;;;10.50;99.90;;;;;;5032717;28;19956;-70
2021/11/14 06:45:21;;;;;;;;;;;10.50;99.90;;;;;;5037375;28;20010;-70
2021/11/14 06:47:47;;;;;;;;;;;10.50;99.90;;;;;;5039062;28;19917;-69
2021/11/14 06:50:14;;;;;;;;;;;10.40;99.90;;;;;;5040629;28;20202;-67
2021/11/14 06:52:40;;;;;;;;;;;10.50;99.90;;;;;;5034522;28;19917;-66
2021/11/14 06:55:07;;;;;;;;;;;10.50;99.90;;;;;;5045412;28;19913;-67
2021/11/14 06:57:33;;;;;;;;;;;10.40;99.90;;;;;;5038447;28;19976;-69
2021/11/14 06:59:58;;;;;;;;;;;10.40;99.90;;;;;;5028464;28;20022;-68
2021/11/14 07:02:24;;;;;;;;;;;10.40;99.90;;;;;;5026191;28;19921;-65
2021/11/14 07:04:50;;;;;;;;;;;10.40;99.90;;;;;;5032898;28;19928;-69
2021/11/14 07:07:16;;;;;;;;;;;10.40;99.90;;;;;;5036317;28;19913;-67
2021/11/14 07:09:41;;;;;;;;;;;10.30;99.90;;;;;;5027656;28;19953;-68
2021/11/14 07:12:07;;;;;;;;;;;10.30;99.90;;;;;;5034618;28;20338;-69
2021/11/14 07:14:33;;;;;;;;;;;10.40;99.90;;;;;;5022264;28;20011;-69
2021/11/14 07:16:58;;;;;;;;;;;10.30;99.90;;;;;;5023184;28;20298;-70
2021/11/14 07:19:24;;;;;;;;;;;10.40;99.90;;;;;;5018307;28;20039;-67
2021/11/14 07:21:50;;;;;;;;;;;10.40;99.90;;;;;;5015648;28;20006;-69
2021/11/14 07:24:16;;;;;;;;;;;10.40;99.90;;;;;;5017995;28;19920;-68
2021/11/14 07:26:42;;;;;;;;;;;10.40;99.90;;;;;;5023404;28;19917;-67
2021/11/14 07:29:08;;;;;;;;;;;10.40;99.90;;;;;;5019813;28;20294;-69
2021/11/14 07:31:34;;;;;;;;;;;10.40;99.90;;;;;;5026875;28;19921;-69
2021/11/14 07:33:59;;;;;;;;;;;10.30;99.90;;;;;;5032462;28;20037;-69
2021/11/14 07:36:25;;;;;;;;;;;10.40;99.90;;;;;;5040657;28;19927;-68
2021/11/14 07:38:51;;;;;;;;;;;10.30;99.90;;;;;;5027408;28;20069;-70
2021/11/14 07:41:16;;;;;;;;;;;10.30;99.90;;;;;;5038258;28;19953;-68
2021/11/14 07:43:42;;;;;;;;;;;10.20;99.90;;;;;;5044570;28;19964;-70
2021/11/14 07:46:09;;;;;;;;;;;10.20;99.90;;;;;;5028369;28;20282;-68
2021/11/14 07:48:35;;;;;;;;;;;10.20;99.90;;;;;;5016416;28;19913;-69
2021/11/14 07:51:01;;;;;;;;;;;10.20;99.90;;;;;;5023718;28;20647;-70
2021/11/14 07:53:27;;;;;;;;;;;10.20;99.90;;;;;;5023016;28;19941;-68
2021/11/14 07:55:53;;;;;;;;;;;10.10;99.90;;;;;;5017119;28;19921;-68
2021/11/14 07:58:18;;;;;;;;;;;10.10;99.90;;;;;;5017252;28;19914;-69
2021/11/14 08:00:45;;;;;;;;;;;10.10;99.90;;;;;;5011210;28;20009;-70
2021/11/14 08:03:10;;;;;;;;;;;10.10;99.90;;;;;;5016396;28;20413;-70
2021/11/14 08:05:37;;;;;;;;;;;10.10;99.90;;;;;;5023028;28;19913;-67
2021/11/14 08:08:03;;;;;;;;;;;10.10;99.90;;;;;;5007163;28;19910;-70
2021/11/14 08:10:29;;;;;;;;;;;10.10;99.90;;;;;;5013508;28;19913;-70
2021/11/14 08:12:55;;;;;;;;;;;10.20;99.90;;;;;;5018254;28;20020;-69
2021/11/14 08:15:22;;;;;;;;;;;10.20;99.90;;;;;;5019965;28;19944;-71
2021/11/14 08:17:47;;;;;;;;;;;10.20;99.90;;;;;;5020070;28;19923;-70
2021/11/14 08:20:13;;;;;;;;;;;10.10;99.90;;;;;;5019758;28;20008;-70
2021/11/14 08:22:39;;;;;;;;;;;10.20;99.90;;;;;;5005617;28;19913;-69
2021/11/14 08:25:05;;;;;;;;;;;10.20;99.90;;;;;;5007063;28;19913;-68
2021/11/14 08:27:31;;;;;;;;;;;10.20;99.90;;;;;;5025620;28;19917;-71
2021/11/14 08:29:58;;;;;;;;;;;10.20;99.90;;;;;;5016484;28;19975;-68
2021/11/14 08:32:23;;;;;;;;;;;10.20;99.90;;;;;;5021216;28;19937;-69
2021/11/14 08:34:49;;;;;;;;;;;10.20;99.90;;;;;;5004895;28;19948;-69
2021/11/14 08:37:15;;;;;;;;;;;10.20;99.90;;;;;;5015780;28;20362;-69
2021/11/14 08:39:40;;;;;;;;;;;10.20;99.90;;;;;;5016163;28;20544;-67
2021/11/14 08:42:06;;;;;;;;;;;10.20;99.90;;;;;;5027435;28;19928;-66
2021/11/14 08:44:32;;;;;;;;;;;10.20;99.90;;;;;;5025141;28;20542;-70
2021/11/14 08:46:59;;;;;;;;;;;10.30;99.90;;;;;;5021186;28;19914;-68
2021/11/14 08:49:24;;;;;;;;;;;10.30;99.90;;;;;;5025903;28;19963;-66
2021/11/14 08:51:50;;;;;;;;;;;10.40;99.90;;;;;;5027488;28;19953;-69
2021/11/14 08:54:16;;;;;;;;;;;10.40;99.90;;;;;;5021116;28;20011;-71
2021/11/14 08:56:42;;;;;;;;;;;10.40;99.90;;;;;;5022038;28;19959;-70
2021/11/14 08:59:08;;;;;;;;;;;10.50;99.90;;;;;;5002902;28;20422;-68
2021/11/14 09:01:35;;;;;;;;;;;10.40;99.90;;;;;;5021562;28;19925;-68
2021/11/14 09:04:00;;;;;;;;;;;10.40;99.90;;;;;;5015702;28;20330;-71
2021/11/14 09:06:27;;;;;;;;;;;10.50;99.90;;;;;;5020672;28;19910;-70
2021/11/14 09:08:54;;;;;;;;;;;10.40;99.90;;;;;;5016568;28;19914;-69
2021/11/14 09:11:20;;;;;;;;;;;10.50;99.90;;;;;;5019706;28;19917;-69
2021/11/14 09:13:45;;;;;;;;;;;10.50;99.90;;;;;;5018440;28;19920;-69
2021/11/14 09:16:11;;;;;;;;;;;10.50;99.90;;;;;;5018430;28;19967;-69
2021/11/14 09:18:37;;;;;;;;;;;10.50;99.90;;;;;;5022276;28;19922;-65
2021/11/14 09:21:04;;;;;;;;;;;10.50;99.90;;;;;;5034572;28;19909;-67
2021/11/14 09:23:30;;;;;;;;;;;10.60;99.90;;;;;;5005977;28;20737;-67
2021/11/14 09:25:56;;;;;;;;;;;10.60;99.90;;;;;;5024107;28;19936;-67
2021/11/14 09:28:23;;;;;;;;;;;10.60;99.90;;;;;;5017823;28;19905;-69
2021/11/14 09:30:50;;;;;;;;;;;10.60;99.90;;;;;;5042122;28;19913;-68
2021/11/14 09:33:19;;;;;;;;;;;10.70;99.90;;;;;;5026967;28;19994;-67
2021/11/14 09:35:45;;;;;;;;;;;10.60;99.90;;;;;;5040877;28;19944;-69
2021/11/14 09:38:11;;;;;;;;;;;10.70;99.90;;;;;;5024473;28;19914;-69
2021/11/14 09:40:37;;;;;;;;;;;10.70;99.90;;;;;;5031741;28;20436;-71
2021/11/14 09:43:03;;;;;;;;;;;10.70;99.90;;;;;;5026018;28;20011;-70
2021/11/14 09:45:31;;;;;;;;;;;10.70;99.90;;;;;;5006952;28;20003;-69
2021/11/14 09:47:57;;;;;;;;;;;10.70;99.90;;;;;;5009181;28;19917;-70
2021/11/14 09:50:24;;;;;;;;;;;10.70;99.90;;;;;;5020072;28;19914;-69
2021/11/14 09:52:50;;;;;;;;;;;10.70;99.90;;;;;;5020344;28;19913;-68
2021/11/14 09:55:16;;;;;;;;;;;10.80;99.90;;;;;;4996028;28;19920;-71
2021/11/14 09:57:49;;;;;;;;;;;10.90;99.90;;;;;;5020108;28;20475;-72
2021/11/14 10:00:16;;;;;;;;;;;10.90;99.90;;;;;;5025153;28;19913;-70
2021/11/14 10:02:42;;;;;;;;;;;10.70;99.90;;;;;;5027423;28;20530;-68
2021/11/14 10:05:09;;;;;;;;;;;10.70;99.90;;;;;;5021776;28;19917;-69
2021/11/14 10:07:36;;;;;;;;;;;10.70;99.90;;;;;;5028503;28;19925;-70
2021/11/14 10:10:02;;;;;;;;;;;10.70;99.90;;;;;;5022549;28;19924;-70
2021/11/14 10:12:35;;;;;;;;;;;10.80;99.90;;;;;;5026383;28;19909;-69
2021/11/14 10:15:07;;;;;;;;;;;10.70;99.90;;;;;;5023745;28;19992;-69
2021/11/14 10:17:33;;;;;;;;;;;10.70;99.90;;;;;;5019107;28;19913;-70
2021/11/14 10:20:07;;;;;;;;;;;10.70;99.90;;;;;;5026317;28;20059;-68
2021/11/14 10:22:33;;;;;;;;;;;10.70;99.90;;;;;;5016717;28;19979;-69
2021/11/14 10:24:59;;;;;;;;;;;10.70;99.90;;;;;;5017431;28;19917;-69
2021/11/14 10:27:26;;;;;;;;;;;10.70;99.90;;;;;;5023620;28;19920;-69
2021/11/14 10:29:53;;;;;;;;;;;10.80;99.90;;;;;;5027299;28;20008;-70
2021/11/14 10:32:20;;;;;;;;;;;10.80;99.90;;;;;;5022217;28;20377;-69
2021/11/14 10:34:56;;;;;;;;;;;10.90;99.90;;;;;;5021549;28;19898;-66
2021/11/14 10:37:25;;;;;;;;;;;10.90;99.90;;;;;;5041386;28;19902;-70
2021/11/14 10:39:52;;;;;;;;;;;10.70;99.90;;;;;;5017925;28;19917;-68
2021/11/14 10:42:18;;;;;;;;;;;10.70;99.90;;;;;;5020002;28;19921;-68
2021/11/14 10:44:48;;;;;;;;;;;10.70;99.90;;;;;;5024012;28;20667;-65
2021/11/14 10:47:18;;;;;;;;;;;10.70;99.90;;;;;;5040770;28;19919;-69
2021/11/14 10:49:54;;;;;;;;;;;10.70;99.90;;;;;;5036955;28;19914;-69
2021/11/14 10:52:20;;;;;;;;;;;10.80;99.90;;;;;;5023905;28;19928;-68
2021/11/14 10:55:00;;;;;;;;;;;10.90;99.90;;;;;;5019698;28;19913;-70
2021/11/14 10:57:27;;;;;;;;;;;11.00;99.90;;;;;;5009950;28;20433;-68
2021/11/14 10:59:53;;;;;;;;;;;10.90;99.90;;;;;;5019858;28;19920;-70
2021/11/14 11:02:20;;;;;;;;;;;10.70;99.90;;;;;;5011135;28;19940;-70
2021/11/14 11:04:55;;;;;;;;;;;10.70;99.90;;;;;;5033642;28;19971;-66
2021/11/14 11:07:25;;;;;;;;;;;10.70;99.90;;;;;;5039018;28;19955;-66
2021/11/14 11:09:55;;;;;;;;;;;10.80;99.90;;;;;;5011408;28;19909;-69
2021/11/14 11:12:22;;;;;;;;;;;10.80;99.90;;;;;;5009903;28;20153;-68
2021/11/14 11:14:55;;;;;;;;;;;10.80;99.90;;;;;;5026753;28;19909;-68
2021/11/14 11:17:21;;;;;;;;;;;10.80;99.90;;;;;;5043533;28;19917;-67
2021/11/14 11:19:47;;;;;;;;;;;10.80;99.90;;;;;;5047156;28;19965;-70
2021/11/14 11:22:12;;;;;;;;;;;10.80;99.90;;;;;;5036757;28;20182;-69
2021/11/14 11:24:47;;;;;;;;;;;10.80;99.90;;;;;;5052168;28;20511;-69
2021/11/14 11:27:16;;;;;;;;;;;10.80;99.90;;;;;;5045523;28;19913;-66
2021/11/14 11:29:50;;;;;;;;;;;10.80;99.90;;;;;;5049798;28;19913;-72
2021/11/14 11:32:16;;;;;;;;;;;10.70;99.90;;;;;;5041921;28;19920;-70
2021/11/14 11:34:42;;;;;;;;;;;10.70;99.90;;;;;;5031342;28;19952;-69
2021/11/14 11:37:09;;;;;;;;;;;10.80;99.90;;;;;;5038237;28;19913;-70
2021/11/14 11:39:35;;;;;;;;;;;10.70;99.90;;;;;;5031047;28;19924;-69
2021/11/14 11:42:01;;;;;;;;;;;10.70;99.90;;;;;;5022890;28;19974;-69
2021/11/14 11:44:28;;;;;;;;;;;10.80;99.90;;;;;;5020813;28;19949;-69
2021/11/14 11:46:56;;;;;;;;;;;10.80;99.90;;;;;;5010106;28;19913;-66
2021/11/14 11:49:29;;;;;;;;;;;10.70;99.90;;;;;;5034769;28;20102;-69
2021/11/14 11:51:56;;;;;;;;;;;10.80;99.90;;;;;;5019684;28;19920;-70
2021/11/14 11:54:25;;;;;;;;;;;10.70;99.90;;;;;;5027678;28;19913;-70
2021/11/14 11:56:58;;;;;;;;;;;10.70;99.90;;;;;;5038430;28;20042;-70
2021/11/14 11:59:25;;;;;;;;;;;10.80;99.90;;;;;;5026849;28;19966;-69
2021/11/14 12:01:53;;;;;;;;;;;10.70;99.90;;;;;;5042994;28;19920;-70
2021/11/14 12:04:25;;;;;;;;;;;10.90;99.90;;;;;;5044900;28;19917;-71
2021/11/14 12:06:56;;;;;;;;;;;10.80;99.90;;;;;;5044962;28;20157;-69
2021/11/14 12:09:22;;;;;;;;;;;10.80;99.90;;;;;;5034259;28;19909;-69
2021/11/14 12:11:48;;;;;;;;;;;10.90;99.90;;;;;;5045801;28;19983;-69
2021/11/14 12:14:20;;;;;;;;;;;11.00;99.90;;;;;;5038050;28;19909;-72
2021/11/14 12:16:57;;;;;;;;;;;11.00;99.90;;;;;;5014819;28;19921;-68
2021/11/14 12:19:24;;;;;;;;;;;11.00;99.90;;;;;;5025694;28;19909;-71
2021/11/14 12:22:01;;;;;;;;;;;10.90;99.90;;;;;;5026153;28;20039;-69
2021/11/14 12:24:28;;;;;;;;;;;11.00;99.90;;;;;;5026552;28;19909;-71
2021/11/14 12:26:53;;;;;;;;;;;11.00;99.90;;;;;;5030147;28;20267;-68
2021/11/14 12:29:28;;;;;;;;;;;11.10;99.90;;;;;;5025678;28;19913;-69
2021/11/14 12:31:56;;;;;;;;;;;11.10;99.90;;;;;;5023320;28;19913;-69
2021/11/14 12:34:27;;;;;;;;;;;11.20;99.90;;;;;;5008650;28;20575;-68
2021/11/14 12:37:04;;;;;;;;;;;11.20;99.90;;;;;;5021741;28;19909;-69
2021/11/14 12:39:31;;;;;;;;;;;11.10;99.90;;;;;;5031299;28;20031;-70
2021/11/14 12:41:56;;;;;;;;;;;11.20;99.90;;;;;;5036970;28;19928;-69
2021/11/14 12:44:36;;;;;;;;;;;11.20;99.90;;;;;;5046422;28;20154;-70
2021/11/14 12:47:14;;;;;;;;;;;11.00;99.90;;;;;;5035884;28;20425;-69
2021/11/14 12:49:39;;;;;;;;;;;11.00;99.90;;;;;;5035702;28;19913;-70
2021/11/14 12:52:06;;;;;;;;;;;11.00;99.90;;;;;;5019029;28;19928;-72
2021/11/14 12:54:32;;;;;;;;;;;11.10;99.90;;;;;;5005193;28;19909;-69
2021/11/14 12:57:07;;;;;;;;;;;11.00;99.90;;;;;;5022005;28;19919;-70
2021/11/14 12:59:33;;;;;;;;;;;11.00;99.90;;;;;;5020421;28;19952;-69
2021/11/14 13:02:00;;;;;;;;;;;11.00;99.90;;;;;;5020890;28;19914;-69
2021/11/14 13:04:27;;;;;;;;;;;11.10;99.90;;;;;;5015420;28;19918;-68
2021/11/14 13:06:54;;;;;;;;;;;11.10;99.90;;;;;;5004002;28;20024;-72
2021/11/14 13:09:21;;;;;;;;;;;11.00;99.90;;;;;;5005350;28;19920;-70
2021/11/14 13:11:48;;;;;;;;;;;11.10;99.90;;;;;;5026581;28;20294;-70
2021/11/14 13:14:15;;;;;;;;;;;11.20;99.90;;;;;;5020123;28;19905;-68
2021/11/14 13:16:43;;;;;;;;;;;11.30;99.90;;;;;;5035724;28;19912;-66
2021/11/14 13:19:09;;;;;;;;;;;11.30;99.90;;;;;;5053227;28;19913;-70
2021/11/14 13:21:39;;;;;;;;;;;11.20;99.90;;;;;;5042882;28;19901;-68
2021/11/14 13:24:11;;;;;;;;;;;11.20;99.90;;;;;;5027458;28;19925;-69
2021/11/14 13:26:39;;;;;;;;;;;11.20;99.90;;;;;;5025149;28;19913;-72
2021/11/14 13:29:07;;;;;;;;;;;11.10;99.90;;;;;;5025152;28;20003;-69
2021/11/14 13:31:33;;;;;;;;;;;11.10;99.90;;;;;;5025032;28;19913;-70
2021/11/14 13:34:01;;;;;;;;;;;11.20;99.90;;;;;;5009891;28;20283;-67
2021/11/14 13:36:27;;;;;;;;;;;11.20;99.90;;;;;;5018909;28;19913;-67
2021/11/14 13:38:53;;;;;;;;;;;11.20;99.90;;;;;;5062802;28;19924;-70
2021/11/14 13:41:19;;;;;;;;;;;11.20;99.90;;;;;;5054597;28;19913;-70
2021/11/14 13:43:52;;;;;;;;;;;11.20;99.90;;;;;;5055930;28;20006;-71
2021/11/14 13:46:17;;;;;;;;;;;11.20;99.90;;;;;;5055554;28;19909;-70
2021/11/14 13:48:43;;;;;;;;;;;11.30;99.90;;;;;;5046380;28;19909;-71
2021/11/14 13:51:08;;;;;;;;;;;11.30;99.90;;;;;;5059546;28;20159;-70
2021/11/14 13:53:34;;;;;;;;;;;11.30;99.90;;;;;;5036692;28;19912;-71
2021/11/14 13:56:01;;;;;;;;;;;11.30;99.90;;;;;;5041731;28;19928;-69
2021/11/14 13:58:38;;;;;;;;;;;11.20;99.90;;;;;;5047935;28;19912;-71
2021/11/14 14:01:03;;;;;;;;;;;11.20;99.90;;;;;;5015425;28;19905;-71
2021/11/14 14:03:29;;;;;;;;;;;11.20;99.90;;;;;;5036630;28;19924;-70
2021/11/14 14:05:55;;;;;;;;;;;11.20;99.90;;;;;;5027638;28;20409;-69
2021/11/14 14:08:27;;;;;;;;;;;11.10;99.90;;;;;;5038059;28;20015;-69
2021/11/14 14:10:53;;;;;;;;;;;11.10;99.90;;;;;;5034807;28;19921;-70
2021/11/14 14:13:18;;;;;;;;;;;11.10;99.90;;;;;;5011192;28;19914;-70
2021/11/14 14:15:45;;;;;;;;;;;11.00;99.90;;;;;;5040778;28;20275;-70